createdAt,value
2022-08-19T00:01:28.866Z,19.60
2022-08-19T00:03:52.277Z,19.60
2022-08-19T00:06:19.811Z,19.70
2022-08-19T00:08:47.485Z,19.60
2022-08-19T00:11:18.597Z,19.70
2022-08-19T00:13:43.371Z,19.40
2022-08-19T00:16:11.881Z,19.30
2022-08-19T00:18:39.455Z,19.20
2022-08-19T00:21:07.020Z,19.00
2022-08-19T00:23:34.643Z,18.90
2022-08-19T00:26:02.217Z,18.90
2022-08-19T00:28:29.781Z,18.80
2022-08-19T00:30:57.365Z,18.70
2022-08-19T00:33:24.920Z,18.60
2022-08-19T00:35:56.154Z,18.80
2022-08-19T00:38:34.980Z,18.80
2022-08-19T00:40:47.632Z,18.70
2022-08-19T00:43:15.266Z,18.60
2022-08-19T00:45:42.843Z,18.60
2022-08-19T00:48:14.905Z,18.40
2022-08-19T00:50:38.727Z,18.40
2022-08-19T00:53:06.320Z,18.40
2022-08-19T00:55:33.885Z,18.30
2022-08-19T00:58:01.457Z,18.30
2022-08-19T01:00:29.819Z,18.40
2022-08-19T01:02:57.372Z,18.40
2022-08-19T01:05:24.926Z,18.30
2022-08-19T01:07:52.540Z,18.30
2022-08-19T01:10:20.093Z,18.50
2022-08-19T01:12:47.713Z,18.40
2022-08-19T01:15:15.568Z,18.30
2022-08-19T01:17:43.123Z,18.20
2022-08-19T01:20:16.418Z,18.10
2022-08-19T01:22:47.334Z,18.00
2022-08-19T01:25:15.293Z,17.90
2022-08-19T01:27:43.595Z,17.90
2022-08-19T01:30:10.001Z,17.80
2022-08-19T01:32:37.556Z,17.80
2022-08-19T01:35:05.164Z,17.80
2022-08-19T01:37:32.725Z,17.70
2022-08-19T01:40:00.345Z,17.70
2022-08-19T01:42:29.963Z,17.70
2022-08-19T01:44:55.456Z,17.70
2022-08-19T01:47:23.788Z,17.90
2022-08-19T01:49:51.352Z,17.80
2022-08-19T01:52:18.947Z,17.80
2022-08-19T01:54:47.279Z,17.90
2022-08-19T01:57:14.849Z,17.90
2022-08-19T01:59:42.444Z,17.90
2022-08-19T02:02:10.763Z,17.70
2022-08-19T02:04:40.802Z,17.70
2022-08-19T02:07:08.375Z,17.70
2022-08-19T02:09:35.966Z,17.60
2022-08-19T02:12:04.308Z,17.70
2022-08-19T02:14:32.876Z,17.60
2022-08-19T02:17:00.431Z,17.60
2022-08-19T02:19:27.995Z,17.50
2022-08-19T02:21:55.867Z,17.40
2022-08-19T02:24:23.439Z,17.40
2022-08-19T02:26:51.003Z,17.30
2022-08-19T02:29:18.616Z,17.30
2022-08-19T02:31:46.194Z,17.20
2022-08-19T02:34:13.747Z,17.50
2022-08-19T02:36:42.488Z,17.40
2022-08-19T02:39:08.896Z,17.40
2022-08-19T02:41:36.480Z,17.30
2022-08-19T02:44:29.202Z,17.30
2022-08-19T02:46:31.728Z,17.30
2022-08-19T02:48:59.252Z,17.20
2022-08-19T02:51:29.868Z,17.20
2022-08-19T02:53:57.443Z,17.50
2022-08-19T02:56:25.007Z,17.70
2022-08-19T02:58:52.604Z,17.60
2022-08-19T03:01:23.794Z,17.70
2022-08-19T03:03:51.276Z,17.70
2022-08-19T03:06:18.851Z,17.60
2022-08-19T03:08:47.184Z,17.70
2022-08-19T03:11:17.652Z,17.70
2022-08-19T03:13:45.255Z,17.60
2022-08-19T03:16:12.820Z,17.50
2022-08-19T03:18:40.443Z,17.40
2022-08-19T03:21:07.978Z,17.40
2022-08-19T03:23:35.552Z,17.30
2022-08-19T03:26:16.598Z,17.20
2022-08-19T03:28:34.314Z,17.10
2022-08-19T03:31:05.276Z,17.00
2022-08-19T03:33:32.840Z,17.00
2022-08-19T03:36:11.875Z,17.00
2022-08-19T03:38:39.429Z,17.10
2022-08-19T03:41:06.984Z,17.10
2022-08-19T03:43:34.589Z,17.10
2022-08-19T03:46:02.942Z,17.00
2022-08-19T03:48:30.464Z,16.90
2022-08-19T03:50:58.048Z,16.90
2022-08-19T03:53:25.612Z,16.90
2022-08-19T03:55:53.180Z,16.80
2022-08-19T03:58:20.767Z,16.80
2022-08-19T04:00:48.363Z,17.00
2022-08-19T04:03:16.713Z,16.90
2022-08-19T04:05:45.056Z,16.80
2022-08-19T04:08:14.004Z,16.80
2022-08-19T04:10:40.963Z,16.70
2022-08-19T04:13:08.813Z,16.70
2022-08-19T04:15:36.387Z,16.70
2022-08-19T04:18:03.970Z,16.60
2022-08-19T04:20:31.584Z,16.60
2022-08-19T04:22:59.168Z,16.60
2022-08-19T04:25:26.732Z,16.60
2022-08-19T04:27:54.336Z,16.50
2022-08-19T04:30:21.897Z,16.50
2022-08-19T04:32:49.470Z,16.50
2022-08-19T04:35:20.131Z,16.50
2022-08-19T04:37:44.649Z,16.40
2022-08-19T04:40:30.586Z,16.40
2022-08-19T04:42:58.157Z,16.40
2022-08-19T04:45:26.499Z,16.30
2022-08-19T04:47:58.819Z,16.30
2022-08-19T04:50:22.415Z,16.30
2022-08-19T04:52:49.981Z,16.30
2022-08-19T04:55:18.490Z,16.30
2022-08-19T04:57:46.064Z,16.30
2022-08-19T05:00:13.657Z,16.30
2022-08-19T05:02:41.271Z,16.50
2022-08-19T05:05:08.835Z,16.60
2022-08-19T05:07:36.409Z,16.60
2022-08-19T05:10:04.810Z,16.70
2022-08-19T05:12:32.384Z,16.70
2022-08-19T05:14:59.948Z,16.70
2022-08-19T05:17:30.146Z,16.70
2022-08-19T05:20:14.080Z,16.60
2022-08-19T05:22:41.684Z,16.60
2022-08-19T05:25:13.053Z,16.60
2022-08-19T05:27:36.803Z,16.60
2022-08-19T05:30:04.692Z,16.60
2022-08-19T05:32:32.246Z,16.60
2022-08-19T05:34:59.812Z,16.60
2022-08-19T05:37:27.424Z,16.60
2022-08-19T05:39:55.009Z,16.60
2022-08-19T05:42:22.546Z,16.80
2022-08-19T05:44:50.482Z,16.80
2022-08-19T05:47:18.056Z,16.80
2022-08-19T05:49:46.378Z,16.70
2022-08-19T05:52:13.973Z,16.70
2022-08-19T05:54:41.536Z,16.70
2022-08-19T05:57:09.120Z,16.70
2022-08-19T05:59:39.249Z,17.30
2022-08-19T06:02:06.268Z,17.30
2022-08-19T06:04:33.822Z,17.30
2022-08-19T06:07:01.443Z,17.30
2022-08-19T06:09:29.088Z,17.60
2022-08-19T06:11:56.633Z,17.60
2022-08-19T06:14:27.838Z,17.70
2022-08-19T06:16:52.566Z,17.60
2022-08-19T06:19:20.889Z,17.70
2022-08-19T06:21:48.492Z,17.70
2022-08-19T06:24:16.067Z,17.70
2022-08-19T06:29:11.983Z,17.80
2022-08-19T06:31:39.568Z,17.90
2022-08-19T06:34:07.888Z,18.00
2022-08-19T06:36:35.778Z,18.00
2022-08-19T06:39:03.354Z,18.20
2022-08-19T06:41:30.908Z,18.20
2022-08-19T06:43:59.113Z,18.30
2022-08-19T06:46:27.528Z,18.50
2022-08-19T06:48:55.840Z,18.70
2022-08-19T06:51:23.466Z,18.70
2022-08-19T06:56:19.319Z,18.90
2022-08-19T06:58:46.938Z,19.00
2022-08-19T07:01:15.271Z,19.30
2022-08-19T07:03:42.838Z,19.20
2022-08-19T07:06:21.296Z,19.40
2022-08-19T07:11:09.267Z,19.70
2022-08-19T07:13:38.845Z,19.80
2022-08-19T07:16:10.135Z,20.00
2022-08-19T07:18:37.696Z,20.00
2022-08-19T07:21:14.329Z,20.20
2022-08-19T07:23:41.922Z,20.30
2022-08-19T07:26:09.585Z,20.40
2022-08-19T07:28:37.504Z,20.60
2022-08-19T07:31:05.087Z,20.60
2022-08-19T07:33:33.409Z,21.20
2022-08-19T07:36:01.013Z,21.10
2022-08-19T07:38:29.365Z,21.20
2022-08-19T07:40:56.943Z,21.20
2022-08-19T07:43:24.880Z,21.30
2022-08-19T07:45:55.323Z,21.30
2022-08-19T07:48:22.845Z,21.40
2022-08-19T07:50:50.468Z,21.40
2022-08-19T07:53:18.013Z,21.50
2022-08-19T07:55:45.589Z,21.70
2022-08-19T07:58:13.974Z,22.00
2022-08-19T08:00:42.345Z,22.20
2022-08-19T08:03:09.941Z,22.20
2022-08-19T08:05:56.872Z,22.30
2022-08-19T08:08:44.523Z,22.40
2022-08-19T08:11:11.074Z,22.70
2022-08-19T08:13:39.105Z,22.70
2022-08-19T08:16:06.286Z,22.80
2022-08-19T08:18:33.870Z,22.90
2022-08-19T08:21:01.434Z,23.20
2022-08-19T08:23:29.815Z,23.70
2022-08-19T08:25:57.571Z,23.70
2022-08-19T08:28:25.690Z,23.80
2022-08-19T08:30:53.256Z,23.80
2022-08-19T08:33:32.735Z,23.90
2022-08-19T08:35:48.423Z,23.90
2022-08-19T08:38:15.980Z,23.90
2022-08-19T08:40:43.564Z,24.00
2022-08-19T08:43:23.893Z,24.30
2022-08-19T08:46:06.876Z,24.20
2022-08-19T08:48:37.483Z,24.30
2022-08-19T08:51:10.916Z,24.30
2022-08-19T08:53:41.425Z,24.20
2022-08-19T08:56:06.093Z,24.50
2022-08-19T08:58:53.859Z,24.80
2022-08-19T09:01:16.854Z,24.80
2022-08-19T09:03:44.395Z,24.90
2022-08-19T09:06:15.681Z,24.80
2022-08-19T09:08:46.771Z,24.80
2022-08-19T09:11:42.984Z,24.80
2022-08-19T09:14:34.892Z,24.90
2022-08-19T09:16:41.059Z,24.90
2022-08-19T09:19:09.414Z,24.90
2022-08-19T09:21:36.991Z,24.90
2022-08-19T09:24:05.380Z,25.10
2022-08-19T09:26:47.585Z,25.20
2022-08-19T09:29:01.301Z,25.20
2022-08-19T09:31:28.899Z,25.20
2022-08-19T09:33:56.472Z,25.30
2022-08-19T09:36:32.924Z,25.30
2022-08-19T09:38:51.655Z,25.40
2022-08-19T09:41:19.973Z,25.70
2022-08-19T09:43:47.774Z,25.70
2022-08-19T09:46:18.261Z,25.80
2022-08-19T09:48:43.600Z,25.90
2022-08-19T09:51:11.958Z,25.90
2022-08-19T09:53:38.750Z,25.90
2022-08-19T09:56:07.085Z,25.90
2022-08-19T09:58:34.653Z,25.90
2022-08-19T10:01:02.284Z,25.90
2022-08-19T10:03:30.571Z,25.90
2022-08-19T10:05:58.159Z,25.90
2022-08-19T10:08:26.484Z,25.90
2022-08-19T10:10:53.276Z,25.90
2022-08-19T10:13:20.831Z,25.90
2022-08-19T10:15:49.509Z,26.10
2022-08-19T10:18:16.031Z,26.10
2022-08-19T10:20:43.619Z,26.10
2022-08-19T10:23:11.489Z,26.10
2022-08-19T10:25:39.053Z,26.10
2022-08-19T10:28:06.607Z,26.10
2022-08-19T10:30:34.231Z,26.30
2022-08-19T10:33:04.389Z,26.30
2022-08-19T10:35:29.389Z,26.30
2022-08-19T10:38:02.023Z,26.30
2022-08-19T10:40:24.628Z,26.40
2022-08-19T10:42:52.146Z,26.40
2022-08-19T10:45:19.832Z,26.40
2022-08-19T10:47:47.356Z,26.40
2022-08-19T10:50:33.229Z,26.40
2022-08-19T10:53:01.562Z,26.30
2022-08-19T10:55:46.909Z,26.40
2022-08-19T10:58:14.482Z,26.30
2022-08-19T11:00:42.048Z,26.20
2022-08-19T11:03:09.781Z,26.20
2022-08-19T11:05:40.447Z,26.10
2022-08-19T11:08:22.209Z,26.10
2022-08-19T11:10:33.204Z,26.40
2022-08-19T11:13:00.815Z,26.40
2022-08-19T11:15:29.158Z,26.50
2022-08-19T11:17:56.744Z,26.40
2022-08-19T11:20:24.317Z,26.50
2022-08-19T11:22:52.639Z,26.50
2022-08-19T11:25:20.273Z,26.50
2022-08-19T11:27:47.888Z,26.50
2022-08-19T11:30:15.365Z,26.50
2022-08-19T11:32:48.543Z,26.60
2022-08-19T11:35:10.904Z,26.70
2022-08-19T11:37:39.236Z,27.20
2022-08-19T11:40:07.011Z,27.20
2022-08-19T11:42:53.023Z,27.20
2022-08-19T11:45:21.602Z,27.10
2022-08-19T11:47:49.159Z,27.10
2022-08-19T11:50:16.710Z,27.20
2022-08-19T11:52:44.327Z,27.20
2022-08-19T11:55:11.870Z,27.20
2022-08-19T11:57:40.193Z,27.10
2022-08-19T12:00:07.846Z,27.10
2022-08-19T12:02:35.420Z,27.00
2022-08-19T12:05:02.983Z,27.00
2022-08-19T12:07:30.596Z,27.00
2022-08-19T12:09:58.162Z,27.00
2022-08-19T12:12:26.525Z,27.00
2022-08-19T12:14:54.137Z,27.00
2022-08-19T12:17:21.692Z,27.00
2022-08-19T12:19:49.248Z,27.00
2022-08-19T12:22:16.931Z,27.10
2022-08-19T12:24:44.476Z,27.10
2022-08-19T12:27:12.916Z,27.30
2022-08-19T12:29:39.639Z,27.30
2022-08-19T12:32:07.193Z,27.30
2022-08-19T12:34:34.771Z,27.20
2022-08-19T12:37:03.142Z,27.40
2022-08-19T12:39:30.736Z,27.40
2022-08-19T12:41:59.024Z,27.40
2022-08-19T12:44:29.486Z,27.30
2022-08-19T12:46:55.086Z,27.30
2022-08-19T12:49:47.099Z,27.30
2022-08-19T12:51:50.288Z,27.30
2022-08-19T12:54:17.861Z,27.30
2022-08-19T12:56:45.420Z,27.40
2022-08-19T12:59:12.989Z,27.40
2022-08-19T13:01:40.556Z,27.40
2022-08-19T13:04:08.113Z,27.40
2022-08-19T13:06:35.711Z,27.50
2022-08-19T13:09:03.361Z,27.50
2022-08-19T13:11:30.966Z,27.50
2022-08-19T13:13:58.521Z,27.50
2022-08-19T13:16:26.092Z,27.50
2022-08-19T13:18:53.635Z,27.70
2022-08-19T13:21:23.192Z,27.50
2022-08-19T13:23:49.556Z,27.50
2022-08-19T13:26:17.113Z,27.40
2022-08-19T13:29:02.793Z,27.40
2022-08-19T13:31:48.463Z,27.30
2022-08-19T13:34:16.027Z,27.30
2022-08-19T13:36:43.591Z,27.40
2022-08-19T13:39:11.155Z,27.60
2022-08-19T13:41:38.740Z,27.60
2022-08-19T13:44:07.056Z,28.00
2022-08-19T13:46:34.619Z,28.00
2022-08-19T13:49:02.196Z,28.00
2022-08-19T13:51:29.778Z,28.00
2022-08-19T13:53:57.315Z,28.10
2022-08-19T13:56:26.511Z,28.10
2022-08-19T13:58:52.468Z,28.00
2022-08-19T14:01:24.565Z,27.90
2022-08-19T14:03:51.155Z,27.70
2022-08-19T14:06:18.719Z,27.70
2022-08-19T14:08:46.548Z,27.60
2022-08-19T14:11:13.868Z,27.80
2022-08-19T14:13:42.200Z,27.90
2022-08-19T14:16:09.754Z,27.90
2022-08-19T14:18:37.394Z,27.80
2022-08-19T14:21:05.732Z,27.60
2022-08-19T14:23:33.304Z,27.60
2022-08-19T14:26:07.760Z,27.40
2022-08-19T14:28:35.325Z,27.40
2022-08-19T14:31:02.919Z,27.30
2022-08-19T14:33:30.561Z,27.30
2022-08-19T14:35:59.621Z,27.30
2022-08-19T14:38:31.780Z,27.40
2022-08-19T14:40:53.283Z,27.40
2022-08-19T14:43:20.828Z,27.40
2022-08-19T14:45:48.383Z,27.40
2022-08-19T14:48:19.271Z,27.40
2022-08-19T14:50:44.306Z,27.70
2022-08-19T14:53:12.081Z,27.70
2022-08-19T14:55:39.791Z,27.60
2022-08-19T14:58:08.836Z,27.50
2022-08-19T15:00:34.895Z,27.40
2022-08-19T15:03:02.488Z,27.30
2022-08-19T15:05:30.082Z,27.50
2022-08-19T15:07:57.613Z,27.40
2022-08-19T15:10:25.201Z,27.40
2022-08-19T15:12:52.879Z,27.20
2022-08-19T15:15:20.352Z,27.10
2022-08-19T15:17:47.969Z,27.00
2022-08-19T15:20:15.526Z,27.00
2022-08-19T15:22:43.089Z,26.90
2022-08-19T15:25:11.535Z,26.90
2022-08-19T15:27:39.132Z,26.90
2022-08-19T15:30:06.810Z,26.90
2022-08-19T15:32:34.696Z,27.00
2022-08-19T15:35:02.269Z,27.20
2022-08-19T15:37:30.648Z,27.40
2022-08-19T15:39:58.301Z,27.40
2022-08-19T15:42:30.289Z,27.30
2022-08-19T15:44:54.114Z,27.30
2022-08-19T15:47:21.706Z,27.30
2022-08-19T15:49:49.257Z,27.20
2022-08-19T15:52:16.829Z,27.10
2022-08-19T15:54:44.451Z,27.10
2022-08-19T15:57:27.275Z,27.40
2022-08-19T16:00:13.251Z,27.50
2022-08-19T16:02:59.317Z,27.40
2022-08-19T16:05:44.952Z,27.20
2022-08-19T16:08:12.512Z,27.10
2022-08-19T16:10:40.108Z,26.90
2022-08-19T16:13:08.464Z,27.10
2022-08-19T16:15:36.032Z,27.00
2022-08-19T16:18:03.594Z,27.00
2022-08-19T16:20:31.186Z,27.00
2022-08-19T16:22:58.785Z,27.10
2022-08-19T16:25:26.356Z,27.00
2022-08-19T16:28:06.670Z,26.80
2022-08-19T16:30:22.301Z,26.70
2022-08-19T16:32:49.851Z,26.70
2022-08-19T16:35:17.464Z,26.70
2022-08-19T16:37:44.998Z,26.80
2022-08-19T16:40:12.741Z,26.70
2022-08-19T16:42:40.283Z,26.70
2022-08-19T16:45:07.925Z,26.60
2022-08-19T16:47:35.475Z,26.50
2022-08-19T16:50:03.064Z,26.30
2022-08-19T16:52:30.627Z,26.20
2022-08-19T16:54:58.182Z,26.10
2022-08-19T16:57:26.077Z,26.00
2022-08-19T16:59:53.652Z,26.00
2022-08-19T17:02:22.061Z,25.90
2022-08-19T17:04:58.054Z,26.00
2022-08-19T17:07:17.157Z,26.00
2022-08-19T17:09:44.707Z,25.90
2022-08-19T17:12:12.324Z,26.10
2022-08-19T17:14:45.165Z,26.30
2022-08-19T17:17:08.154Z,26.30
2022-08-19T17:19:35.738Z,26.20
2022-08-19T17:22:03.309Z,26.00
2022-08-19T17:24:30.877Z,25.90
2022-08-19T17:26:58.490Z,25.80
2022-08-19T17:29:26.045Z,25.60
2022-08-19T17:31:53.617Z,25.50
2022-08-19T17:34:21.211Z,25.50
2022-08-19T17:36:48.785Z,25.40
2022-08-19T17:39:16.360Z,25.30
2022-08-19T17:41:43.953Z,25.20
2022-08-19T17:44:11.549Z,25.10
2022-08-19T17:46:39.111Z,25.00
2022-08-19T17:49:06.760Z,24.90
2022-08-19T17:51:34.309Z,24.80
2022-08-19T17:54:01.863Z,24.80
2022-08-19T17:56:29.480Z,24.70
2022-08-19T17:58:59.628Z,24.60
2022-08-19T18:01:24.676Z,24.60
2022-08-19T18:03:53.154Z,24.70
2022-08-19T18:06:20.727Z,24.90
2022-08-19T18:08:48.282Z,25.10
2022-08-19T18:11:15.886Z,25.10
2022-08-19T18:13:44.208Z,24.90
2022-08-19T18:16:11.763Z,24.80
2022-08-19T18:18:39.368Z,24.70
2022-08-19T18:21:06.940Z,24.60
2022-08-19T18:23:44.055Z,24.40
2022-08-19T18:26:02.847Z,24.40
2022-08-19T18:28:30.440Z,24.30
2022-08-19T18:30:58.766Z,24.20
2022-08-19T18:33:26.356Z,24.20
2022-08-19T18:35:53.920Z,24.10
2022-08-19T18:38:39.443Z,24.00
2022-08-19T18:41:25.646Z,23.90
2022-08-19T18:44:11.338Z,23.90
2022-08-19T18:46:57.501Z,23.80
2022-08-19T18:49:24.525Z,23.80
2022-08-19T18:51:52.088Z,24.00
2022-08-19T18:54:19.663Z,23.90
2022-08-19T18:56:48.027Z,24.10
2022-08-19T18:59:14.866Z,24.00
2022-08-19T19:01:42.469Z,23.90
2022-08-19T19:04:12.524Z,23.90
2022-08-19T19:06:40.100Z,23.80
2022-08-19T19:09:07.653Z,23.80
2022-08-19T19:11:35.247Z,23.70
2022-08-19T19:14:02.810Z,23.90
2022-08-19T19:16:31.172Z,23.80
2022-08-19T19:18:58.787Z,23.70
2022-08-19T19:21:26.360Z,23.70
2022-08-19T19:23:53.914Z,23.90
2022-08-19T19:26:21.498Z,23.80
2022-08-19T19:28:49.053Z,23.70
2022-08-19T19:31:16.604Z,23.70
2022-08-19T19:33:44.198Z,23.60
2022-08-19T19:36:11.753Z,23.50
2022-08-19T19:38:39.317Z,23.50
2022-08-19T19:41:06.924Z,23.70
2022-08-19T19:43:34.885Z,23.90
2022-08-19T19:46:02.050Z,24.00
2022-08-19T19:48:29.706Z,23.90
2022-08-19T19:50:58.005Z,23.60
2022-08-19T19:53:25.883Z,23.60
2022-08-19T19:55:53.173Z,23.60
2022-08-19T19:58:22.744Z,23.50
2022-08-19T20:00:48.344Z,23.40
2022-08-19T20:03:15.876Z,23.40
2022-08-19T20:05:43.499Z,23.30
2022-08-19T20:08:29.359Z,23.30
2022-08-19T20:10:56.913Z,23.30
2022-08-19T20:13:24.467Z,23.50
2022-08-19T20:15:52.051Z,23.50
2022-08-19T20:18:19.595Z,23.40
2022-08-19T20:20:47.160Z,23.30
2022-08-19T20:23:14.833Z,23.30
2022-08-19T20:25:42.386Z,23.20
2022-08-19T20:28:10.679Z,23.10
2022-08-19T20:30:40.458Z,23.10
2022-08-19T20:33:08.543Z,23.10
2022-08-19T20:35:36.108Z,23.20
2022-08-19T20:38:03.915Z,23.20
2022-08-19T20:40:31.265Z,23.10
2022-08-19T20:42:58.830Z,23.00
2022-08-19T20:45:32.928Z,23.00
2022-08-19T20:47:54.152Z,23.20
2022-08-19T20:50:21.572Z,23.10
2022-08-19T20:52:50.186Z,23.00
2022-08-19T20:55:17.516Z,22.90
2022-08-19T20:57:45.106Z,22.80
2022-08-19T21:00:12.720Z,22.80
2022-08-19T21:02:40.294Z,22.70
2022-08-19T21:05:07.877Z,22.80
2022-08-19T21:07:39.540Z,22.80
2022-08-19T21:10:03.044Z,22.70
2022-08-19T21:12:30.594Z,22.60
2022-08-19T21:14:58.206Z,22.60
2022-08-19T21:17:25.761Z,22.50
2022-08-19T21:19:53.344Z,22.40
2022-08-19T21:22:21.046Z,22.30
2022-08-19T21:24:48.617Z,22.20
2022-08-19T21:27:16.233Z,22.10
2022-08-19T21:29:43.828Z,22.00
2022-08-19T21:32:14.563Z,21.90
2022-08-19T21:34:40.263Z,21.90
2022-08-19T21:37:11.636Z,22.00
2022-08-19T21:39:36.215Z,22.00
2022-08-19T21:42:03.758Z,21.90
2022-08-19T21:44:32.514Z,21.80
2022-08-19T21:47:00.099Z,21.60
2022-08-19T21:49:27.672Z,21.50
2022-08-19T21:51:55.512Z,21.40
2022-08-19T21:54:23.078Z,21.30
2022-08-19T21:56:50.641Z,21.20
2022-08-19T21:59:18.254Z,21.10
2022-08-19T22:01:49.631Z,21.00
2022-08-19T22:04:13.403Z,21.00
2022-08-19T22:06:41.016Z,20.90
2022-08-19T22:09:09.348Z,20.80
2022-08-19T22:11:36.904Z,20.80
2022-08-19T22:14:05.629Z,20.80
2022-08-19T22:16:33.971Z,20.70
2022-08-19T22:19:01.516Z,20.70
2022-08-19T22:21:39.891Z,20.70
2022-08-19T22:23:56.704Z,20.60
2022-08-19T22:26:25.085Z,20.60
2022-08-19T22:28:52.688Z,20.50
2022-08-19T22:31:20.243Z,20.50
2022-08-19T22:33:47.807Z,20.70
2022-08-19T22:36:15.404Z,20.70
2022-08-19T22:38:42.975Z,20.70
2022-08-19T22:41:11.307Z,20.70
2022-08-19T22:43:39.197Z,20.70
2022-08-19T22:46:17.362Z,20.70
2022-08-19T22:48:34.324Z,20.60
2022-08-19T22:51:19.996Z,20.80
2022-08-19T22:53:47.553Z,21.00
2022-08-19T22:56:15.630Z,21.10
2022-08-19T22:58:42.721Z,21.20
2022-08-19T23:01:11.098Z,21.20
2022-08-19T23:03:38.636Z,21.20
2022-08-19T23:06:06.249Z,21.10
2022-08-19T23:08:33.816Z,20.90
2022-08-19T23:11:01.380Z,20.80
2022-08-19T23:13:29.860Z,20.70
2022-08-19T23:15:57.416Z,20.60
2022-08-19T23:18:24.979Z,20.60
2022-08-19T23:20:52.878Z,20.50
2022-08-19T23:23:20.483Z,20.40
2022-08-19T23:25:48.038Z,20.40
2022-08-19T23:28:34.751Z,20.50
2022-08-19T23:31:02.375Z,20.50
2022-08-19T23:33:46.614Z,20.50
2022-08-19T23:36:03.423Z,20.40
2022-08-19T23:38:30.975Z,20.30
2022-08-19T23:40:58.540Z,20.30
2022-08-19T23:43:26.125Z,20.50
2022-08-19T23:45:53.716Z,20.40
2022-08-19T23:48:21.246Z,20.40
2022-08-19T23:50:48.845Z,20.30
2022-08-19T23:53:16.410Z,20.30
2022-08-19T23:55:43.974Z,20.20
2022-08-19T23:58:11.589Z,20.20
